sensor_id;sensor_type;location;lat;lon;timestamp;pressure;altitude;pressure_sealevel;temperature;humidity
72096;BME280;59968;51.084;16.748;2022-10-13T00:01:18;101051.06;;;7.38;73.71
72096;BME280;59968;51.084;16.748;2022-10-13T00:03:50;101052.38;;;7.35;74.02
72096;BME280;59968;51.084;16.748;2022-10-13T00:06:24;101047.04;;;7.32;74.11
72096;BME280;59968;51.084;16.748;2022-10-13T00:08:59;101042.79;;;7.28;74.32
72096;BME280;59968;51.084;16.748;2022-10-13T00:11:32;101046.97;;;7.29;74.31
72096;BME280;59968;51.084;16.748;2022-10-13T00:14:07;101042.10;;;7.30;74.41
72096;BME280;59968;51.084;16.748;2022-10-13T00:16:36;101040.27;;;7.31;74.53
72096;BME280;59968;51.084;16.748;2022-10-13T00:19:06;101038.20;;;7.31;74.57
72096;BME280;59968;51.084;16.748;2022-10-13T00:21:42;101035.03;;;7.30;74.66
72096;BME280;59968;51.084;16.748;2022-10-13T00:24:16;101032.33;;;7.28;74.63
72096;BME280;59968;51.084;16.748;2022-10-13T00:26:50;101030.23;;;7.26;74.47
72096;BME280;59968;51.084;16.748;2022-10-13T00:29:21;101031.63;;;7.24;74.61
72096;BME280;59968;51.084;16.748;2022-10-13T00:31:51;101033.27;;;7.22;74.34
72096;BME280;59968;51.084;16.748;2022-10-13T00:34:24;101037.28;;;7.21;74.42
72096;BME280;59968;51.084;16.748;2022-10-13T00:36:54;101033.58;;;7.20;74.20
72096;BME280;59968;51.084;16.748;2022-10-13T00:39:23;101030.34;;;7.19;74.01
72096;BME280;59968;51.084;16.748;2022-10-13T00:41:54;101025.46;;;7.18;73.82
72096;BME280;59968;51.084;16.748;2022-10-13T00:45:04;101026.80;;;7.17;73.86
72096;BME280;59968;51.084;16.748;2022-10-13T00:47:42;101030.88;;;7.14;73.90
72096;BME280;59968;51.084;16.748;2022-10-13T00:50:20;101032.55;;;7.13;74.12
72096;BME280;59968;51.084;16.748;2022-10-13T00:52:57;101030.49;;;7.11;74.07
72096;BME280;59968;51.084;16.748;2022-10-13T00:55:33;101030.09;;;7.08;74.03
72096;BME280;59968;51.084;16.748;2022-10-13T00:58:08;101030.23;;;7.05;73.94
72096;BME280;59968;51.084;16.748;2022-10-13T01:00:47;101032.77;;;7.00;74.04
72096;BME280;59968;51.084;16.748;2022-10-13T01:03:21;101035.00;;;6.99;74.14
72096;BME280;59968;51.084;16.748;2022-10-13T01:05:55;101030.09;;;6.97;74.11
72096;BME280;59968;51.084;16.748;2022-10-13T01:08:30;101026.15;;;6.97;74.27
72096;BME280;59968;51.084;16.748;2022-10-13T01:11:41;101022.72;;;6.96;74.39
72096;BME280;59968;51.084;16.748;2022-10-13T01:14:50;101017.01;;;6.91;73.94
72096;BME280;59968;51.084;16.748;2022-10-13T01:23:06;101012.05;;;6.82;74.40
72096;BME280;59968;51.084;16.748;2022-10-13T01:26:16;101010.37;;;6.81;74.60
72096;BME280;59968;51.084;16.748;2022-10-13T01:34:33;101001.80;;;6.83;75.17
72096;BME280;59968;51.084;16.748;2022-10-13T01:37:28;100999.66;;;6.84;75.29
72096;BME280;59968;51.084;16.748;2022-10-13T01:43:00;100996.34;;;6.83;75.06
72096;BME280;59968;51.084;16.748;2022-10-13T01:45:59;100993.88;;;6.81;74.86
72096;BME280;59968;51.084;16.748;2022-10-13T01:48:41;100987.57;;;6.79;75.24
72096;BME280;59968;51.084;16.748;2022-10-13T01:51:17;100985.30;;;6.76;75.37
72096;BME280;59968;51.084;16.748;2022-10-13T01:53:52;100981.25;;;6.75;75.39
72096;BME280;59968;51.084;16.748;2022-10-13T01:56:27;100982.70;;;6.74;75.54
72096;BME280;59968;51.084;16.748;2022-10-13T01:59:05;100981.66;;;6.74;75.30
72096;BME280;59968;51.084;16.748;2022-10-13T02:04:41;100973.73;;;6.71;75.75
72096;BME280;59968;51.084;16.748;2022-10-13T02:07:27;100970.45;;;6.70;75.72
72096;BME280;59968;51.084;16.748;2022-10-13T02:15:29;100968.97;;;6.67;75.58
72096;BME280;59968;51.084;16.748;2022-10-13T02:18:02;100967.39;;;6.67;75.61
72096;BME280;59968;51.084;16.748;2022-10-13T02:20:34;100967.63;;;6.67;75.41
72096;BME280;59968;51.084;16.748;2022-10-13T02:23:09;100962.20;;;6.64;75.07
72096;BME280;59968;51.084;16.748;2022-10-13T02:25:41;100967.02;;;6.63;74.76
72096;BME280;59968;51.084;16.748;2022-10-13T02:28:13;100967.37;;;6.59;74.67
72096;BME280;59968;51.084;16.748;2022-10-13T02:30:48;100965.17;;;6.55;74.58
72096;BME280;59968;51.084;16.748;2022-10-13T02:33:18;100963.80;;;6.51;74.88
72096;BME280;59968;51.084;16.748;2022-10-13T02:35:49;100964.44;;;6.48;74.80
72096;BME280;59968;51.084;16.748;2022-10-13T02:38:24;100963.46;;;6.48;75.01
72096;BME280;59968;51.084;16.748;2022-10-13T02:40:59;100961.28;;;6.47;74.93
72096;BME280;59968;51.084;16.748;2022-10-13T02:43:34;100963.11;;;6.47;75.15
72096;BME280;59968;51.084;16.748;2022-10-13T02:46:05;100963.07;;;6.50;75.39
72096;BME280;59968;51.084;16.748;2022-10-13T02:48:37;100960.07;;;6.50;75.47
72096;BME280;59968;51.084;16.748;2022-10-13T02:51:07;100958.13;;;6.51;75.36
72096;BME280;59968;51.084;16.748;2022-10-13T02:53:41;100957.72;;;6.50;75.25
72096;BME280;59968;51.084;16.748;2022-10-13T02:56:11;100954.70;;;6.47;75.05
72096;BME280;59968;51.084;16.748;2022-10-13T02:58:45;100952.16;;;6.44;75.01
72096;BME280;59968;51.084;16.748;2022-10-13T03:01:16;100944.21;;;6.35;74.95
72096;BME280;59968;51.084;16.748;2022-10-13T03:04:11;100949.62;;;6.35;74.96
72096;BME280;59968;51.084;16.748;2022-10-13T03:06:43;100954.62;;;6.32;74.98
72096;BME280;59968;51.084;16.748;2022-10-13T03:09:13;100961.29;;;6.29;74.69
72096;BME280;59968;51.084;16.748;2022-10-13T03:11:45;100959.49;;;6.26;74.52
72096;BME280;59968;51.084;16.748;2022-10-13T03:14:18;100956.58;;;6.25;74.72
72096;BME280;59968;51.084;16.748;2022-10-13T03:16:53;100952.51;;;6.24;75.01
72096;BME280;59968;51.084;16.748;2022-10-13T03:19:29;100955.52;;;6.23;75.12
72096;BME280;59968;51.084;16.748;2022-10-13T03:22:00;100953.44;;;6.22;75.07
72096;BME280;59968;51.084;16.748;2022-10-13T03:24:30;100949.52;;;6.19;75.17
72096;BME280;59968;51.084;16.748;2022-10-13T03:27:02;100951.52;;;6.18;75.34
72096;BME280;59968;51.084;16.748;2022-10-13T03:29:35;100949.20;;;6.17;75.64
72096;BME280;59968;51.084;16.748;2022-10-13T03:32:09;100951.04;;;6.16;75.68
72096;BME280;59968;51.084;16.748;2022-10-13T03:34:39;100951.08;;;6.16;75.70
72096;BME280;59968;51.084;16.748;2022-10-13T03:37:13;100957.86;;;6.17;75.69
72096;BME280;59968;51.084;16.748;2022-10-13T03:39:52;100956.45;;;6.17;75.69
72096;BME280;59968;51.084;16.748;2022-10-13T03:42:22;100956.27;;;6.17;75.80
72096;BME280;59968;51.084;16.748;2022-10-13T03:44:52;100953.23;;;6.18;75.76
72096;BME280;59968;51.084;16.748;2022-10-13T03:47:26;100954.73;;;6.19;75.99
72096;BME280;59968;51.084;16.748;2022-10-13T03:50:00;100955.41;;;6.19;75.76
72096;BME280;59968;51.084;16.748;2022-10-13T03:52:31;100953.59;;;6.18;75.68
72096;BME280;59968;51.084;16.748;2022-10-13T03:55:03;100955.05;;;6.15;75.38
72096;BME280;59968;51.084;16.748;2022-10-13T03:57:32;100957.09;;;6.10;74.93
72096;BME280;59968;51.084;16.748;2022-10-13T04:00:02;100957.96;;;6.05;75.10
72096;BME280;59968;51.084;16.748;2022-10-13T04:02:40;100955.56;;;6.01;75.52
72096;BME280;59968;51.084;16.748;2022-10-13T04:05:10;100949.71;;;6.00;75.44
72096;BME280;59968;51.084;16.748;2022-10-13T04:07:40;100952.42;;;6.00;75.43
72096;BME280;59968;51.084;16.748;2022-10-13T04:10:19;100946.65;;;5.99;75.23
72096;BME280;59968;51.084;16.748;2022-10-13T04:12:50;100941.52;;;5.97;75.04
72096;BME280;59968;51.084;16.748;2022-10-13T04:15:20;100942.68;;;5.96;75.17
72096;BME280;59968;51.084;16.748;2022-10-13T04:17:49;100942.67;;;5.94;75.31
72096;BME280;59968;51.084;16.748;2022-10-13T04:20:23;100941.04;;;5.92;75.12
72096;BME280;59968;51.084;16.748;2022-10-13T04:22:54;100939.66;;;5.90;75.34
72096;BME280;59968;51.084;16.748;2022-10-13T04:25:29;100938.08;;;5.88;75.80
72096;BME280;59968;51.084;16.748;2022-10-13T04:27:59;100940.18;;;5.90;75.76
72096;BME280;59968;51.084;16.748;2022-10-13T04:30:32;100940.05;;;5.91;75.73
72096;BME280;59968;51.084;16.748;2022-10-13T04:33:03;100938.02;;;5.93;75.48
72096;BME280;59968;51.084;16.748;2022-10-13T04:35:39;100937.98;;;5.93;75.65
72096;BME280;59968;51.084;16.748;2022-10-13T04:38:21;100934.73;;;5.93;75.57
72096;BME280;59968;51.084;16.748;2022-10-13T04:40:54;100937.30;;;5.91;75.62
72096;BME280;59968;51.084;16.748;2022-10-13T04:43:26;100935.93;;;5.89;75.51
72096;BME280;59968;51.084;16.748;2022-10-13T04:46:05;100929.95;;;5.87;75.76
72096;BME280;59968;51.084;16.748;2022-10-13T04:48:36;100922.23;;;5.85;75.71
72096;BME280;59968;51.084;16.748;2022-10-13T04:51:18;100926.66;;;5.81;75.54
72096;BME280;59968;51.084;16.748;2022-10-13T04:53:54;100934.91;;;5.79;75.53
72096;BME280;59968;51.084;16.748;2022-10-13T04:56:28;100936.57;;;5.78;75.67
72096;BME280;59968;51.084;16.748;2022-10-13T04:59:09;100937.02;;;5.79;75.67
72096;BME280;59968;51.084;16.748;2022-10-13T05:01:45;100937.53;;;5.79;75.67
72096;BME280;59968;51.084;16.748;2022-10-13T05:04:22;100932.29;;;5.78;75.79
72096;BME280;59968;51.084;16.748;2022-10-13T05:06:57;100932.61;;;5.78;75.74
72096;BME280;59968;51.084;16.748;2022-10-13T05:09:51;100929.83;;;5.77;75.53
72096;BME280;59968;51.084;16.748;2022-10-13T05:12:24;100923.98;;;5.75;75.47
72096;BME280;59968;51.084;16.748;2022-10-13T05:14:53;100918.55;;;5.71;75.59
72096;BME280;59968;51.084;16.748;2022-10-13T05:17:22;100922.92;;;5.76;75.54
72096;BME280;59968;51.084;16.748;2022-10-13T05:19:50;100923.48;;;5.77;75.58
72096;BME280;59968;51.084;16.748;2022-10-13T05:22:18;100920.58;;;5.79;75.74
72096;BME280;59968;51.084;16.748;2022-10-13T05:24:49;100916.35;;;5.78;75.87
72096;BME280;59968;51.084;16.748;2022-10-13T05:27:17;100913.77;;;5.76;75.71
72096;BME280;59968;51.084;16.748;2022-10-13T05:29:47;100918.14;;;5.73;75.62
72096;BME280;59968;51.084;16.748;2022-10-13T05:32:19;100921.14;;;5.74;75.74
72096;BME280;59968;51.084;16.748;2022-10-13T05:34:54;100923.36;;;5.72;75.69
72096;BME280;59968;51.084;16.748;2022-10-13T05:37:23;100918.91;;;5.73;75.89
72096;BME280;59968;51.084;16.748;2022-10-13T05:39:51;100918.52;;;5.75;75.89
72096;BME280;59968;51.084;16.748;2022-10-13T05:42:23;100921.70;;;5.77;75.88
72096;BME280;59968;51.084;16.748;2022-10-13T05:44:52;100920.64;;;5.81;75.87
72096;BME280;59968;51.084;16.748;2022-10-13T05:47:20;100915.33;;;5.85;75.86
72096;BME280;59968;51.084;16.748;2022-10-13T05:49:54;100912.77;;;5.89;75.84
72096;BME280;59968;51.084;16.748;2022-10-13T05:52:23;100911.30;;;5.92;75.95
72096;BME280;59968;51.084;16.748;2022-10-13T05:54:57;100915.88;;;5.96;76.15
72096;BME280;59968;51.084;16.748;2022-10-13T05:57:37;100914.79;;;5.98;76.12
72096;BME280;59968;51.084;16.748;2022-10-13T06:00:10;100913.14;;;6.01;76.10
72096;BME280;59968;51.084;16.748;2022-10-13T06:02:47;100914.14;;;6.05;76.37
72096;BME280;59968;51.084;16.748;2022-10-13T06:05:18;100912.27;;;6.11;76.67
72096;BME280;59968;51.084;16.748;2022-10-13T06:07:50;100906.32;;;6.17;76.64
72096;BME280;59968;51.084;16.748;2022-10-13T06:10:23;100909.48;;;6.27;76.54
72096;BME280;59968;51.084;16.748;2022-10-13T06:12:55;100904.44;;;6.35;76.68
72096;BME280;59968;51.084;16.748;2022-10-13T06:15:27;100904.70;;;6.42;76.56
72096;BME280;59968;51.084;16.748;2022-10-13T06:17:57;100905.98;;;6.48;76.53
72096;BME280;59968;51.084;16.748;2022-10-13T06:20:27;100910.48;;;6.54;76.70
72096;BME280;59968;51.084;16.748;2022-10-13T06:22:57;100913.78;;;6.60;76.80
72096;BME280;59968;51.084;16.748;2022-10-13T06:25:25;100915.52;;;6.65;76.72
72096;BME280;59968;51.084;16.748;2022-10-13T06:27:56;100912.07;;;6.74;76.72
72096;BME280;59968;51.084;16.748;2022-10-13T06:30:30;100907.54;;;6.85;76.72
72096;BME280;59968;51.084;16.748;2022-10-13T06:32:58;100912.05;;;6.95;76.79
72096;BME280;59968;51.084;16.748;2022-10-13T06:35:27;100907.28;;;7.05;76.76
72096;BME280;59968;51.084;16.748;2022-10-13T06:37:56;100900.83;;;7.14;76.89
72096;BME280;59968;51.084;16.748;2022-10-13T06:40:25;100895.83;;;7.24;76.92
72096;BME280;59968;51.084;16.748;2022-10-13T06:42:53;100888.30;;;7.32;76.98
72096;BME280;59968;51.084;16.748;2022-10-13T06:45:24;100884.69;;;7.40;76.91
72096;BME280;59968;51.084;16.748;2022-10-13T06:47:53;100889.75;;;7.48;76.80
72096;BME280;59968;51.084;16.748;2022-10-13T06:50:24;100888.68;;;7.55;76.92
72096;BME280;59968;51.084;16.748;2022-10-13T06:52:54;100889.14;;;7.63;76.89
72096;BME280;59968;51.084;16.748;2022-10-13T06:55:23;100890.31;;;7.74;76.84
72096;BME280;59968;51.084;16.748;2022-10-13T06:57:51;100884.53;;;7.83;76.94
72096;BME280;59968;51.084;16.748;2022-10-13T07:00:22;100888.44;;;7.95;76.87
72096;BME280;59968;51.084;16.748;2022-10-13T07:02:51;100886.08;;;8.06;76.86
72096;BME280;59968;51.084;16.748;2022-10-13T07:05:19;100888.70;;;8.17;76.70
72096;BME280;59968;51.084;16.748;2022-10-13T07:07:51;100886.20;;;8.28;76.48
72096;BME280;59968;51.084;16.748;2022-10-13T07:10:23;100886.36;;;8.37;76.36
72096;BME280;59968;51.084;16.748;2022-10-13T07:12:51;100885.30;;;8.47;76.40
72096;BME280;59968;51.084;16.748;2022-10-13T07:15:20;100886.71;;;8.60;76.39
72096;BME280;59968;51.084;16.748;2022-10-13T07:17:52;100882.81;;;8.72;76.28
72096;BME280;59968;51.084;16.748;2022-10-13T07:20:22;100881.40;;;8.85;76.20
72096;BME280;59968;51.084;16.748;2022-10-13T07:22:53;100881.73;;;8.99;76.33
72096;BME280;59968;51.084;16.748;2022-10-13T07:25:22;100880.27;;;9.11;76.13
72096;BME280;59968;51.084;16.748;2022-10-13T07:27:53;100876.90;;;9.23;76.21
72096;BME280;59968;51.084;16.748;2022-10-13T07:30:21;100879.84;;;9.37;76.27
72096;BME280;59968;51.084;16.748;2022-10-13T07:32:50;100874.02;;;9.49;76.00
72096;BME280;59968;51.084;16.748;2022-10-13T07:35:19;100876.13;;;9.59;75.72
72096;BME280;59968;51.084;16.748;2022-10-13T07:37:53;100869.65;;;9.71;75.87
72096;BME280;59968;51.084;16.748;2022-10-13T07:40:25;100872.92;;;9.85;76.01
72096;BME280;59968;51.084;16.748;2022-10-13T07:42:55;100871.13;;;9.99;75.80
72096;BME280;59968;51.084;16.748;2022-10-13T07:45:24;100869.85;;;10.12;75.60
72096;BME280;59968;51.084;16.748;2022-10-13T07:47:55;100864.08;;;10.25;75.49
72096;BME280;59968;51.084;16.748;2022-10-13T07:50:26;100864.23;;;10.37;75.26
72096;BME280;59968;51.084;16.748;2022-10-13T07:52:54;100863.33;;;10.48;75.02
72096;BME280;59968;51.084;16.748;2022-10-13T07:55:23;100857.96;;;10.62;74.93
72096;BME280;59968;51.084;16.748;2022-10-13T07:57:54;100821.03;;;10.52;74.87
72096;BME280;59968;51.084;16.748;2022-10-13T08:00:22;100854.21;;;10.85;74.75
72096;BME280;59968;51.084;16.748;2022-10-13T08:02:50;100854.67;;;10.97;74.55
72096;BME280;59968;51.084;16.748;2022-10-13T08:05:18;100852.37;;;11.10;74.69
72096;BME280;59968;51.084;16.748;2022-10-13T08:07:46;100849.33;;;11.24;74.48
72096;BME280;59968;51.084;16.748;2022-10-13T08:10:16;100843.98;;;11.36;74.07
72096;BME280;59968;51.084;16.748;2022-10-13T08:12:48;100835.86;;;11.45;73.89
72096;BME280;59968;51.084;16.748;2022-10-13T08:15:17;100844.16;;;11.61;73.65
72096;BME280;59968;51.084;16.748;2022-10-13T08:17:45;100841.52;;;11.72;73.46
72096;BME280;59968;51.084;16.748;2022-10-13T08:20:13;100840.91;;;11.81;73.03
72096;BME280;59968;51.084;16.748;2022-10-13T08:22:41;100840.34;;;11.92;72.75
72096;BME280;59968;51.084;16.748;2022-10-13T08:25:10;100832.83;;;12.00;72.64
72096;BME280;59968;51.084;16.748;2022-10-13T08:27:38;100830.02;;;12.12;72.26
72096;BME280;59968;51.084;16.748;2022-10-13T08:30:18;100834.34;;;12.24;72.30
72096;BME280;59968;51.084;16.748;2022-10-13T08:32:47;100833.74;;;12.35;71.78
72096;BME280;59968;51.084;16.748;2022-10-13T08:35:15;100832.81;;;12.43;71.54
72096;BME280;59968;51.084;16.748;2022-10-13T08:37:44;100830.85;;;12.53;71.45
72096;BME280;59968;51.084;16.748;2022-10-13T08:40:18;100828.73;;;12.63;71.16
72096;BME280;59968;51.084;16.748;2022-10-13T08:42:48;100831.89;;;12.74;70.90
72096;BME280;59968;51.084;16.748;2022-10-13T08:45:28;100832.30;;;12.81;70.58
72096;BME280;59968;51.084;16.748;2022-10-13T08:48:35;100830.81;;;12.93;70.63
72096;BME280;59968;51.084;16.748;2022-10-13T08:51:06;100826.05;;;13.01;70.18
72096;BME280;59968;51.084;16.748;2022-10-13T08:53:39;100825.61;;;13.10;69.92
72096;BME280;59968;51.084;16.748;2022-10-13T08:58:49;100822.73;;;13.28;69.71
72096;BME280;59968;51.084;16.748;2022-10-13T09:01:19;100821.36;;;13.36;69.44
72096;BME280;59968;51.084;16.748;2022-10-13T09:06:51;100823.21;;;13.56;68.71
72096;BME280;59968;51.084;16.748;2022-10-13T09:09:21;100825.78;;;13.68;68.59
72096;BME280;59968;51.084;16.748;2022-10-13T09:11:53;100818.23;;;13.78;68.26
72096;BME280;59968;51.084;16.748;2022-10-13T09:14:27;100819.17;;;13.88;68.30
72096;BME280;59968;51.084;16.748;2022-10-13T09:17:18;100820.51;;;13.98;68.12
72096;BME280;59968;51.084;16.748;2022-10-13T09:23:21;100814.55;;;14.21;67.49
72096;BME280;59968;51.084;16.748;2022-10-13T09:25:51;100815.94;;;14.30;67.20
72096;BME280;59968;51.084;16.748;2022-10-13T09:28:27;100815.35;;;14.38;67.54
72096;BME280;59968;51.084;16.748;2022-10-13T09:33:44;100811.33;;;14.56;67.22
72096;BME280;59968;51.084;16.748;2022-10-13T09:36:14;100809.52;;;14.62;66.89
72096;BME280;59968;51.084;16.748;2022-10-13T09:39:13;100806.02;;;14.70;66.65
72096;BME280;59968;51.084;16.748;2022-10-13T09:41:44;100800.26;;;14.80;66.31
72096;BME280;59968;51.084;16.748;2022-10-13T09:44:16;100800.13;;;14.84;66.52
72096;BME280;59968;51.084;16.748;2022-10-13T09:46:52;100792.42;;;14.91;65.89
72096;BME280;59968;51.084;16.748;2022-10-13T09:49:38;100794.42;;;14.99;65.67
72096;BME280;59968;51.084;16.748;2022-10-13T09:57:27;100787.20;;;15.21;65.38
72096;BME280;59968;51.084;16.748;2022-10-13T10:00:11;100783.08;;;15.27;64.99
72096;BME280;59968;51.084;16.748;2022-10-13T10:02:58;100789.02;;;15.37;64.96
72096;BME280;59968;51.084;16.748;2022-10-13T10:05:43;100789.16;;;15.45;64.77
72096;BME280;59968;51.084;16.748;2022-10-13T10:08:19;100783.94;;;15.54;64.37
72096;BME280;59968;51.084;16.748;2022-10-13T10:11:14;100779.09;;;15.65;64.43
72096;BME280;59968;51.084;16.748;2022-10-13T10:13:45;100778.10;;;15.76;64.04
72096;BME280;59968;51.084;16.748;2022-10-13T10:19:21;100775.31;;;15.94;63.82
72096;BME280;59968;51.084;16.748;2022-10-13T10:22:00;100767.20;;;16.03;63.49
72096;BME280;59968;51.084;16.748;2022-10-13T10:24:54;100761.97;;;16.13;63.30
72096;BME280;59968;51.084;16.748;2022-10-13T10:27:30;100757.02;;;16.21;62.71
72096;BME280;59968;51.084;16.748;2022-10-13T10:30:18;100749.67;;;16.29;62.98
72096;BME280;59968;51.084;16.748;2022-10-13T10:35:51;100747.51;;;16.45;62.20
72096;BME280;59968;51.084;16.748;2022-10-13T10:39:17;100742.06;;;16.52;62.04
72096;BME280;59968;51.084;16.748;2022-10-13T10:44:12;100732.18;;;16.69;61.17
72096;BME280;59968;51.084;16.748;2022-10-13T10:46:47;100724.63;;;16.78;61.08
72096;BME280;59968;51.084;16.748;2022-10-13T10:49:35;100724.20;;;16.87;60.80
72096;BME280;59968;51.084;16.748;2022-10-13T10:52:14;100721.33;;;16.95;60.20
72096;BME280;59968;51.084;16.748;2022-10-13T10:55:25;100717.65;;;17.02;60.31
72096;BME280;59968;51.084;16.748;2022-10-13T11:06:40;100704.70;;;17.31;59.65
72096;BME280;59968;51.084;16.748;2022-10-13T11:09:12;100703.26;;;17.38;59.52
72096;BME280;59968;51.084;16.748;2022-10-13T11:11:42;100701.93;;;17.46;59.02
72096;BME280;59968;51.084;16.748;2022-10-13T11:14:27;100695.80;;;17.52;58.71
72096;BME280;59968;51.084;16.748;2022-10-13T11:17:07;100695.59;;;17.60;58.97
72096;BME280;59968;51.084;16.748;2022-10-13T11:19:41;100690.48;;;17.66;59.39
72096;BME280;59968;51.084;16.748;2022-10-13T11:22:21;100684.30;;;17.72;59.39
72096;BME280;59968;51.084;16.748;2022-10-13T11:25:40;100682.80;;;17.77;58.90
72096;BME280;59968;51.084;16.748;2022-10-13T11:27:43;100673.04;;;17.84;58.63
72096;BME280;59968;51.084;16.748;2022-10-13T11:30:39;100666.20;;;17.90;58.37
72096;BME280;59968;51.084;16.748;2022-10-13T11:36:36;100652.00;;;18.08;57.90
72096;BME280;59968;51.084;16.748;2022-10-13T11:47:53;100637.96;;;18.39;57.33
72096;BME280;59968;51.084;16.748;2022-10-13T11:55:52;100633.81;;;18.50;55.84
72096;BME280;59968;51.084;16.748;2022-10-13T11:58:24;100632.38;;;18.54;55.39
72096;BME280;59968;51.084;16.748;2022-10-13T12:01:09;100627.56;;;18.58;55.10
72096;BME280;59968;51.084;16.748;2022-10-13T12:03:42;100623.48;;;18.64;55.18
72096;BME280;59968;51.084;16.748;2022-10-13T12:08:48;100616.48;;;18.75;54.38
72096;BME280;59968;51.084;16.748;2022-10-13T12:11:33;100610.71;;;18.79;54.27
72096;BME280;59968;51.084;16.748;2022-10-13T12:14:06;100606.85;;;18.82;54.64
72096;BME280;59968;51.084;16.748;2022-10-13T12:16:51;100609.49;;;18.86;54.31
72096;BME280;59968;51.084;16.748;2022-10-13T12:19:23;100607.54;;;18.91;54.10
72096;BME280;59968;51.084;16.748;2022-10-13T12:21:55;100607.44;;;18.92;53.79
72096;BME280;59968;51.084;16.748;2022-10-13T12:24:29;100604.34;;;18.95;53.94
72096;BME280;59968;51.084;16.748;2022-10-13T12:27:09;100601.80;;;19.00;53.55
72096;BME280;59968;51.084;16.748;2022-10-13T12:29:42;100600.99;;;19.02;52.20
72096;BME280;59968;51.084;16.748;2022-10-13T12:32:25;100599.65;;;19.02;52.27
72096;BME280;59968;51.084;16.748;2022-10-13T12:34:54;100600.05;;;19.07;52.34
72096;BME280;59968;51.084;16.748;2022-10-13T12:37:31;100592.44;;;19.11;52.37
72096;BME280;59968;51.084;16.748;2022-10-13T12:40:03;100592.83;;;19.17;52.47
72096;BME280;59968;51.084;16.748;2022-10-13T12:42:34;100592.05;;;19.20;52.37
72096;BME280;59968;51.084;16.748;2022-10-13T12:45:05;100588.79;;;19.23;52.63
72096;BME280;59968;51.084;16.748;2022-10-13T12:50:39;100595.96;;;19.23;51.84
72096;BME280;59968;51.084;16.748;2022-10-13T12:55:46;100594.20;;;19.22;51.63
72096;BME280;59968;51.084;16.748;2022-10-13T12:58:23;100596.33;;;19.21;51.93
72096;BME280;59968;51.084;16.748;2022-10-13T13:01:33;100596.20;;;19.19;51.80
72096;BME280;59968;51.084;16.748;2022-10-13T13:06:58;100590.40;;;19.10;51.81
72096;BME280;59968;51.084;16.748;2022-10-13T13:09:33;100589.88;;;19.07;51.95
72096;BME280;59968;51.084;16.748;2022-10-13T13:14:49;100580.80;;;18.95;53.14
72096;BME280;59968;51.084;16.748;2022-10-13T13:17:30;100578.58;;;18.91;52.81
72096;BME280;59968;51.084;16.748;2022-10-13T13:20:32;100573.23;;;18.87;52.96
72096;BME280;59968;51.084;16.748;2022-10-13T13:23:09;100569.29;;;18.84;52.90
72096;BME280;59968;51.084;16.748;2022-10-13T13:25:42;100566.02;;;18.82;52.83
72096;BME280;59968;51.084;16.748;2022-10-13T13:28:14;100552.35;;;18.77;52.85
72096;BME280;59968;51.084;16.748;2022-10-13T13:30:44;100562.04;;;18.83;52.82
72096;BME280;59968;51.084;16.748;2022-10-13T13:33:16;100560.66;;;18.83;52.28
72096;BME280;59968;51.084;16.748;2022-10-13T13:35:48;100558.35;;;18.83;52.04
72096;BME280;59968;51.084;16.748;2022-10-13T13:38:18;100553.00;;;18.84;51.81
72096;BME280;59968;51.084;16.748;2022-10-13T13:40:48;100550.96;;;18.84;51.57
72096;BME280;59968;51.084;16.748;2022-10-13T13:43:17;100550.78;;;18.83;51.18
72096;BME280;59968;51.084;16.748;2022-10-13T13:45:50;100548.94;;;18.83;51.48
72096;BME280;59968;51.084;16.748;2022-10-13T13:48:24;100546.94;;;18.82;51.62
72096;BME280;59968;51.084;16.748;2022-10-13T13:50:55;100540.47;;;18.82;51.82
72096;BME280;59968;51.084;16.748;2022-10-13T13:53:26;100539.64;;;18.81;51.80
72096;BME280;59968;51.084;16.748;2022-10-13T13:56:00;100537.04;;;18.82;51.73
72096;BME280;59968;51.084;16.748;2022-10-13T13:58:35;100528.84;;;18.79;51.49
72096;BME280;59968;51.084;16.748;2022-10-13T14:01:07;100535.38;;;18.83;51.76
72096;BME280;59968;51.084;16.748;2022-10-13T14:03:38;100535.98;;;18.82;51.69
72096;BME280;59968;51.084;16.748;2022-10-13T14:06:18;100538.92;;;18.81;51.50
72096;BME280;59968;51.084;16.748;2022-10-13T14:08:50;100537.92;;;18.78;51.68
72096;BME280;59968;51.084;16.748;2022-10-13T14:11:31;100541.59;;;18.74;51.50
72096;BME280;59968;51.084;16.748;2022-10-13T14:14:02;100537.80;;;18.70;51.51
72096;BME280;59968;51.084;16.748;2022-10-13T14:16:37;100535.91;;;18.68;51.99
72096;BME280;59968;51.084;16.748;2022-10-13T14:19:10;100538.59;;;18.64;51.88
72096;BME280;59968;51.084;16.748;2022-10-13T14:21:43;100536.27;;;18.61;51.86
72096;BME280;59968;51.084;16.748;2022-10-13T14:24:35;100542.55;;;18.59;52.26
72096;BME280;59968;51.084;16.748;2022-10-13T14:27:17;100537.67;;;18.55;52.06
72096;BME280;59968;51.084;16.748;2022-10-13T14:29:49;100535.79;;;18.52;52.50
72096;BME280;59968;51.084;16.748;2022-10-13T14:32:28;100535.27;;;18.48;52.38
72096;BME280;59968;51.084;16.748;2022-10-13T14:35:37;100531.04;;;18.44;52.29
72096;BME280;59968;51.084;16.748;2022-10-13T14:38:28;100525.57;;;18.41;52.74
72096;BME280;59968;51.084;16.748;2022-10-13T14:41:28;100521.50;;;18.37;52.73
72096;BME280;59968;51.084;16.748;2022-10-13T14:44:22;100521.02;;;18.31;52.82
72096;BME280;59968;51.084;16.748;2022-10-13T14:46:58;100517.68;;;18.27;53.15
72096;BME280;59968;51.084;16.748;2022-10-13T14:49:27;100518.81;;;18.23;53.63
72096;BME280;59968;51.084;16.748;2022-10-13T14:51:58;100516.60;;;18.18;53.98
72096;BME280;59968;51.084;16.748;2022-10-13T14:54:37;100515.41;;;18.13;54.16